createdAt,value
2022-07-28T00:01:10.210Z,16.27
2022-07-28T00:04:17.788Z,13.75
2022-07-28T00:07:23.511Z,14.25
2022-07-28T00:10:32.529Z,13.30
2022-07-28T00:13:40.818Z,13.45
2022-07-28T00:16:48.934Z,12.25
2022-07-28T00:19:54.509Z,12.18
2022-07-28T00:23:01.937Z,12.23
2022-07-28T00:26:07.620Z,11.75
2022-07-28T00:29:18.041Z,12.07
2022-07-28T00:32:23.719Z,11.68
2022-07-28T00:35:31.725Z,12.15
2022-07-28T00:38:37.558Z,9.82
2022-07-28T00:41:48.622Z,11.38
2022-07-28T00:44:57.251Z,10.10
2022-07-28T00:48:04.803Z,9.90
2022-07-28T00:51:11.676Z,8.93
2022-07-28T00:54:19.310Z,9.68
2022-07-28T00:57:24.952Z,8.77
2022-07-28T01:00:35.372Z,9.07
2022-07-28T01:03:44.053Z,9.20
2022-07-28T01:07:11.615Z,8.88
2022-07-28T01:10:27.945Z,8.80
2022-07-28T01:13:42.598Z,9.40
2022-07-28T01:16:57.099Z,7.50
2022-07-28T01:20:12.606Z,7.57
2022-07-28T01:23:52.660Z,7.75
2022-07-28T01:27:04.515Z,7.88
2022-07-28T01:33:25.042Z,7.13
2022-07-28T01:36:34.784Z,7.85
2022-07-28T01:39:45.867Z,7.18
2022-07-28T01:42:55.071Z,7.40
2022-07-28T01:46:05.598Z,7.57
2022-07-28T01:49:14.807Z,7.20
2022-07-28T01:52:23.506Z,7.45
2022-07-28T01:55:30.290Z,7.28
2022-07-28T01:58:38.735Z,6.18
2022-07-28T02:01:46.835Z,5.57
2022-07-28T02:04:59.290Z,5.47
2022-07-28T02:08:06.125Z,5.60
2022-07-28T02:11:29.209Z,6.32
2022-07-28T02:14:36.683Z,4.85
2022-07-28T02:17:48.263Z,5.57
2022-07-28T02:20:56.646Z,5.10
2022-07-28T02:24:04.570Z,5.35
2022-07-28T02:27:15.082Z,5.20
2022-07-28T02:30:31.717Z,4.82
2022-07-28T02:33:59.803Z,4.82
2022-07-28T02:37:11.175Z,6.17
2022-07-28T02:40:19.853Z,4.70
2022-07-28T02:43:49.438Z,5.38
2022-07-28T02:47:00.277Z,5.15
2022-07-28T02:50:09.378Z,4.13
2022-07-28T02:53:18.388Z,4.55
2022-07-28T02:56:26.766Z,6.05
2022-07-28T02:59:32.733Z,4.40
2022-07-28T03:02:42.219Z,5.00
2022-07-28T03:05:48.239Z,4.20
2022-07-28T03:08:59.024Z,3.67
2022-07-28T03:12:04.564Z,4.03
2022-07-28T03:15:13.033Z,4.15
2022-07-28T03:18:18.535Z,4.57
2022-07-28T03:21:25.959Z,4.75
2022-07-28T03:24:38.846Z,5.43
2022-07-28T03:27:49.237Z,4.32
2022-07-28T03:31:00.551Z,4.13
2022-07-28T03:34:11.677Z,3.85
2022-07-28T03:37:21.834Z,4.10
2022-07-28T03:40:35.026Z,4.25
2022-07-28T03:43:42.267Z,4.00
2022-07-28T03:46:50.364Z,3.08
2022-07-28T03:49:56.035Z,3.45
2022-07-28T03:53:05.142Z,3.70
2022-07-28T03:56:13.290Z,4.00
2022-07-28T03:59:21.856Z,3.97
2022-07-28T04:02:27.448Z,4.07
2022-07-28T04:05:35.088Z,4.10
2022-07-28T04:08:40.728Z,4.07
2022-07-28T04:11:50.891Z,3.38
2022-07-28T04:14:56.443Z,3.00
2022-07-28T04:18:04.427Z,3.22
2022-07-28T04:21:09.893Z,3.88
2022-07-28T04:24:17.638Z,2.88
2022-07-28T04:27:26.213Z,3.95
2022-07-28T04:30:34.101Z,3.33
2022-07-28T04:33:39.789Z,3.10
2022-07-28T04:36:47.413Z,2.17
2022-07-28T04:39:52.998Z,2.75
2022-07-28T04:43:04.175Z,3.47
2022-07-28T04:46:14.590Z,3.33
2022-07-28T04:49:22.790Z,2.25
2022-07-28T04:52:28.766Z,3.05
2022-07-28T04:55:38.579Z,2.60
2022-07-28T04:58:46.890Z,2.47
2022-07-28T05:01:57.526Z,3.00
2022-07-28T05:05:03.195Z,2.28
2022-07-28T05:08:10.877Z,2.10
2022-07-28T05:11:16.367Z,2.35
2022-07-28T05:14:26.784Z,2.40
2022-07-28T05:17:32.520Z,2.92
2022-07-28T05:20:40.047Z,2.80
2022-07-28T05:23:47.642Z,2.38
2022-07-28T05:30:03.599Z,2.53
2022-07-28T05:33:11.373Z,2.97
2022-07-28T05:36:16.928Z,2.38
2022-07-28T05:39:24.688Z,2.25
2022-07-28T05:42:36.032Z,1.60
2022-07-28T05:45:46.860Z,1.83
2022-07-28T05:48:53.297Z,2.00
2022-07-28T05:52:00.949Z,2.80
2022-07-28T05:55:06.678Z,2.53
2022-07-28T05:58:14.116Z,2.03
2022-07-28T06:01:22.760Z,3.63
2022-07-28T06:04:31.061Z,2.20
2022-07-28T06:07:43.110Z,2.20
2022-07-28T06:11:09.557Z,1.95
2022-07-28T06:14:18.114Z,2.22
2022-07-28T06:17:28.893Z,2.10
2022-07-28T06:20:34.383Z,2.00
2022-07-28T06:23:44.818Z,2.13
2022-07-28T06:26:50.385Z,2.58
2022-07-28T06:29:57.955Z,2.22
2022-07-28T06:33:08.020Z,2.78
2022-07-28T06:36:15.506Z,2.33
2022-07-28T06:39:21.063Z,1.90
2022-07-28T06:42:33.010Z,1.90
2022-07-28T06:45:42.281Z,2.00
2022-07-28T06:48:52.879Z,2.42
2022-07-28T06:51:59.275Z,1.92
2022-07-28T06:55:06.918Z,4.60
2022-07-28T06:58:12.302Z,2.50
2022-07-28T07:01:20.067Z,2.35
2022-07-28T07:04:28.585Z,3.13
2022-07-28T07:07:39.782Z,1.90
2022-07-28T07:10:48.393Z,2.17
2022-07-28T07:13:55.962Z,2.88
2022-07-28T07:17:01.434Z,4.03
2022-07-28T07:20:14.425Z,2.75
2022-07-28T07:23:22.683Z,2.00
2022-07-28T07:26:30.474Z,2.95
2022-07-28T07:29:36.072Z,2.85
2022-07-28T07:32:44.209Z,3.17
2022-07-28T07:35:52.948Z,3.85
2022-07-28T07:39:00.631Z,2.55
2022-07-28T07:42:06.319Z,3.35
2022-07-28T07:45:17.163Z,2.40
2022-07-28T07:48:24.163Z,1.98
2022-07-28T07:51:34.511Z,1.67
2022-07-28T07:54:40.061Z,2.35
2022-07-28T07:57:47.966Z,3.65
2022-07-28T08:00:54.769Z,1.98
2022-07-28T08:04:03.173Z,2.70
2022-07-28T08:07:11.513Z,1.77
2022-07-28T08:10:19.709Z,1.90
2022-07-28T08:13:25.214Z,5.22
2022-07-28T08:16:32.786Z,4.55
2022-07-28T08:19:38.192Z,2.15
2022-07-28T08:22:56.519Z,1.90
2022-07-28T08:26:03.013Z,1.40
2022-07-28T08:29:10.495Z,2.38
2022-07-28T08:32:16.218Z,4.60
2022-07-28T08:35:33.730Z,2.97
2022-07-28T08:38:43.105Z,2.80
2022-07-28T08:41:56.597Z,1.92
2022-07-28T08:45:06.281Z,2.10
2022-07-28T08:48:15.296Z,1.45
2022-07-28T08:51:21.979Z,1.63
2022-07-28T08:54:33.301Z,2.72
2022-07-28T08:57:43.886Z,2.20
2022-07-28T09:00:51.782Z,5.28
2022-07-28T09:03:57.965Z,2.03
2022-07-28T09:07:05.516Z,3.05
2022-07-28T09:10:15.080Z,3.33
2022-07-28T09:13:22.872Z,2.83
2022-07-28T09:16:28.418Z,2.40
2022-07-28T09:19:37.821Z,1.98
2022-07-28T09:22:59.547Z,1.95
2022-07-28T09:26:14.021Z,3.20
2022-07-28T09:29:27.874Z,2.97
2022-07-28T09:32:38.210Z,2.28
2022-07-28T09:35:47.568Z,2.72
2022-07-28T09:38:55.226Z,2.30
2022-07-28T09:42:03.849Z,2.65
2022-07-28T09:45:23.056Z,2.55
2022-07-28T09:48:29.566Z,3.28
2022-07-28T09:51:37.503Z,2.05
2022-07-28T09:54:42.949Z,1.98
2022-07-28T09:57:55.248Z,2.72
2022-07-28T10:01:13.236Z,2.42
2022-07-28T10:04:32.800Z,2.08
2022-07-28T10:07:52.830Z,2.33
2022-07-28T10:11:03.913Z,2.25
2022-07-28T10:14:14.027Z,2.80
2022-07-28T10:17:30.113Z,2.60
2022-07-28T10:20:36.775Z,2.35
2022-07-28T10:23:49.282Z,3.00
2022-07-28T10:26:57.805Z,1.75
2022-07-28T10:30:09.676Z,2.83
2022-07-28T10:36:28.272Z,2.40
2022-07-28T10:39:38.784Z,2.72
2022-07-28T10:42:46.653Z,2.38
2022-07-28T10:46:05.612Z,2.30
2022-07-28T10:49:16.171Z,2.10
2022-07-28T10:52:46.600Z,2.50
2022-07-28T10:55:58.219Z,1.80
2022-07-28T10:59:13.442Z,2.15
2022-07-28T11:02:50.606Z,2.72
2022-07-28T11:05:56.376Z,2.00
2022-07-28T11:09:25.017Z,3.10
2022-07-28T11:12:55.531Z,2.45
2022-07-28T11:16:22.924Z,1.65
2022-07-28T11:19:36.755Z,2.65
2022-07-28T11:22:55.419Z,3.95
2022-07-28T11:26:34.835Z,2.95
2022-07-28T11:29:49.873Z,2.90
2022-07-28T11:32:59.978Z,2.47
2022-07-28T11:36:10.642Z,2.50
2022-07-28T11:39:25.699Z,1.77
2022-07-28T11:42:36.182Z,2.55
2022-07-28T11:45:47.256Z,2.25
2022-07-28T11:49:32.045Z,1.92
2022-07-28T11:52:40.272Z,2.28
2022-07-28T11:55:49.305Z,2.00
2022-07-28T11:59:11.429Z,1.63
2022-07-28T12:02:21.203Z,2.45
2022-07-28T12:05:26.732Z,2.22
2022-07-28T12:08:57.942Z,3.88
2022-07-28T12:12:05.839Z,2.45
2022-07-28T12:21:45.811Z,3.80
2022-07-28T12:25:01.346Z,2.10
2022-07-28T12:28:17.855Z,2.17
2022-07-28T12:31:26.390Z,3.08
2022-07-28T12:34:38.257Z,1.63
2022-07-28T12:37:47.938Z,2.97
2022-07-28T12:40:58.903Z,2.95
2022-07-28T12:44:06.062Z,4.93
2022-07-28T12:47:15.840Z,2.97
2022-07-28T12:50:36.414Z,2.58
2022-07-28T12:54:06.028Z,4.28
2022-07-28T12:57:24.931Z,2.03
2022-07-28T13:00:47.244Z,1.75
2022-07-28T13:07:46.378Z,1.95
2022-07-28T13:10:57.535Z,1.55
2022-07-28T13:14:11.360Z,3.72
2022-07-28T13:17:18.945Z,2.00
2022-07-28T13:20:25.124Z,1.48
2022-07-28T13:23:32.637Z,2.05
2022-07-28T13:26:38.204Z,3.55
2022-07-28T13:29:54.869Z,2.50
2022-07-28T13:33:00.714Z,1.80
2022-07-28T13:36:08.562Z,2.65
2022-07-28T13:39:14.377Z,1.42
2022-07-28T13:42:23.559Z,1.10
2022-07-28T13:45:32.391Z,1.90
2022-07-28T13:48:57.334Z,1.85
2022-07-28T13:52:04.558Z,4.30
2022-07-28T13:55:13.195Z,2.30
2022-07-28T13:58:23.234Z,1.92
2022-07-28T14:01:34.962Z,2.05
2022-07-28T14:04:40.744Z,2.53
2022-07-28T14:07:53.588Z,1.77
2022-07-28T14:11:01.538Z,2.95
2022-07-28T14:14:12.535Z,1.80
2022-07-28T14:17:44.899Z,2.35
2022-07-28T14:20:50.538Z,1.40
2022-07-28T14:23:56.534Z,2.20
2022-07-28T14:27:04.046Z,2.35
2022-07-28T14:30:10.842Z,1.48
2022-07-28T14:33:22.454Z,2.40
2022-07-28T14:36:27.894Z,1.48
2022-07-28T14:39:35.359Z,2.08
2022-07-28T14:42:41.086Z,2.25
2022-07-28T14:46:00.753Z,2.55
2022-07-28T14:49:17.079Z,1.77
2022-07-28T14:52:24.878Z,1.77
2022-07-28T14:55:30.790Z,2.28
2022-07-28T14:58:38.648Z,1.73
2022-07-28T15:01:44.125Z,2.97
2022-07-28T15:04:55.435Z,2.15
2022-07-28T15:08:00.928Z,2.63
2022-07-28T15:11:10.671Z,2.17
2022-07-28T15:14:18.986Z,1.75
2022-07-28T15:17:28.966Z,2.45
2022-07-28T15:20:38.212Z,3.65
2022-07-28T15:23:45.660Z,1.83
2022-07-28T15:26:51.239Z,1.95
2022-07-28T15:29:58.967Z,4.18
2022-07-28T15:33:08.060Z,2.07
2022-07-28T15:36:22.111Z,3.95
2022-07-28T15:39:31.027Z,3.75
2022-07-28T15:42:39.448Z,3.22
2022-07-28T15:45:46.331Z,2.30
2022-07-28T15:48:58.845Z,3.00
2022-07-28T15:52:07.577Z,1.60
2022-07-28T15:55:15.074Z,3.83
2022-07-28T15:58:20.518Z,4.50
2022-07-28T16:01:30.341Z,2.13
2022-07-28T16:04:36.325Z,1.60
2022-07-28T16:08:01.565Z,3.33
2022-07-28T16:11:07.306Z,2.40
2022-07-28T16:14:15.205Z,2.63
2022-07-28T16:17:21.368Z,3.83
2022-07-28T16:20:29.147Z,2.13
2022-07-28T16:23:38.114Z,2.08
2022-07-28T16:26:45.716Z,4.40
2022-07-28T16:29:52.377Z,2.70
2022-07-28T16:33:00.789Z,1.48
2022-07-28T16:36:06.623Z,2.75
2022-07-28T16:39:16.903Z,1.55
2022-07-28T16:42:22.855Z,2.80
2022-07-28T16:45:30.792Z,4.93
2022-07-28T16:48:36.706Z,1.73
2022-07-28T16:51:44.291Z,2.78
2022-07-28T16:54:52.636Z,3.25
2022-07-28T16:58:00.034Z,5.38
2022-07-28T17:01:05.619Z,11.20
2022-07-28T17:04:13.630Z,2.83
2022-07-28T17:07:24.187Z,4.32
2022-07-28T17:10:34.946Z,5.22
2022-07-28T17:13:45.356Z,2.33
2022-07-28T17:16:53.208Z,3.35
2022-07-28T17:19:59.079Z,5.47
2022-07-28T17:23:06.659Z,2.53
2022-07-28T17:29:46.777Z,1.85
2022-07-28T17:32:52.435Z,1.25
2022-07-28T17:36:00.000Z,2.10
2022-07-28T17:39:07.178Z,2.60
2022-07-28T17:42:20.088Z,1.80
2022-07-28T17:45:25.716Z,3.05
2022-07-28T17:48:33.564Z,3.50
2022-07-28T17:51:39.275Z,2.92
2022-07-28T17:55:02.347Z,4.93
2022-07-28T17:58:21.387Z,2.33
2022-07-28T18:01:33.246Z,3.00
2022-07-28T18:04:38.615Z,6.38
2022-07-28T18:07:50.334Z,4.72
2022-07-28T18:10:57.130Z,3.17
2022-07-28T18:14:07.565Z,5.03
2022-07-28T18:17:13.138Z,2.03
2022-07-28T18:20:20.555Z,2.75
2022-07-28T18:23:26.088Z,2.17
2022-07-28T18:26:33.472Z,3.38
2022-07-28T18:29:41.638Z,2.10
2022-07-28T18:32:49.147Z,2.30
2022-07-28T18:35:54.738Z,2.85
2022-07-28T18:39:02.371Z,2.17
2022-07-28T18:42:08.417Z,6.38
2022-07-28T18:45:19.170Z,7.00
2022-07-28T18:48:25.726Z,4.60
2022-07-28T18:51:33.372Z,2.58
2022-07-28T18:54:38.814Z,7.10
2022-07-28T18:57:46.498Z,3.95
2022-07-28T19:00:54.965Z,4.10
2022-07-28T19:04:02.572Z,4.05
2022-07-28T19:07:07.975Z,3.30
2022-07-28T19:10:15.454Z,3.25
2022-07-28T19:13:20.875Z,4.70
2022-07-28T19:16:31.155Z,3.05
2022-07-28T19:19:36.778Z,4.30
2022-07-28T19:22:44.351Z,2.10
2022-07-28T19:25:50.199Z,2.20
2022-07-28T19:28:58.895Z,3.58
2022-07-28T19:32:09.138Z,2.88
2022-07-28T19:35:17.010Z,1.95
2022-07-28T19:38:22.374Z,3.40
2022-07-28T19:41:31.711Z,2.03
2022-07-28T19:44:37.227Z,2.28
2022-07-28T19:47:49.871Z,4.50
2022-07-28T19:50:56.704Z,2.22
2022-07-28T19:54:05.549Z,3.78
2022-07-28T19:57:12.604Z,3.63
2022-07-28T20:00:22.272Z,3.10
2022-07-28T20:04:00.095Z,3.22
2022-07-28T20:06:58.111Z,2.97
2022-07-28T20:10:03.570Z,2.53
2022-07-28T20:13:11.130Z,3.85
2022-07-28T20:16:17.220Z,3.38
2022-07-28T20:19:27.625Z,2.25
2022-07-28T20:22:33.160Z,3.13
2022-07-28T20:25:40.768Z,2.65
2022-07-28T20:28:46.699Z,1.77
2022-07-28T20:31:54.447Z,1.60
2022-07-28T20:35:02.659Z,2.15
2022-07-28T20:38:10.551Z,2.42
2022-07-28T20:41:17.167Z,3.42
2022-07-28T20:44:29.474Z,3.30
2022-07-28T20:47:35.673Z,2.03
2022-07-28T20:50:46.177Z,1.50
2022-07-28T20:53:51.832Z,1.52
2022-07-28T20:56:59.520Z,2.13
2022-07-28T21:00:05.247Z,2.80
2022-07-28T21:03:13.245Z,2.42
2022-07-28T21:06:24.360Z,2.25
2022-07-28T21:09:32.055Z,3.47
2022-07-28T21:12:37.581Z,2.92
2022-07-28T21:15:45.219Z,4.22
2022-07-28T21:18:51.186Z,3.08
2022-07-28T21:22:01.637Z,4.57
2022-07-28T21:25:07.638Z,2.22
2022-07-28T21:28:30.829Z,4.35
2022-07-28T21:31:36.739Z,7.32
2022-07-28T21:35:04.342Z,3.55
2022-07-28T21:38:12.883Z,2.80
2022-07-28T21:41:25.936Z,3.60
2022-07-28T21:44:31.416Z,1.52
2022-07-28T21:47:38.949Z,3.30
2022-07-28T21:50:45.043Z,3.40
2022-07-28T21:53:57.180Z,3.92
2022-07-28T21:57:02.545Z,3.95
2022-07-28T22:00:13.214Z,2.33
2022-07-28T22:03:18.751Z,3.13
2022-07-28T22:06:26.421Z,3.80
2022-07-28T22:09:37.865Z,1.55
2022-07-28T22:12:45.458Z,3.35
2022-07-28T22:15:51.640Z,2.58
2022-07-28T22:18:59.095Z,2.33
2022-07-28T22:22:04.940Z,1.63
2022-07-28T22:25:15.845Z,2.40
2022-07-28T22:28:29.267Z,1.92
2022-07-28T22:31:38.070Z,3.33
2022-07-28T22:34:43.535Z,2.20
2022-07-28T22:37:51.187Z,2.50
2022-07-28T22:40:59.407Z,4.70
2022-07-28T22:44:07.810Z,2.33
2022-07-28T22:47:13.582Z,3.05
2022-07-28T22:50:21.703Z,2.03
2022-07-28T22:53:27.277Z,2.33
2022-07-28T22:56:37.933Z,3.35
2022-07-28T22:59:49.290Z,2.38
2022-07-28T23:02:58.870Z,4.05
2022-07-28T23:06:05.017Z,3.08
2022-07-28T23:09:12.693Z,2.25
2022-07-28T23:12:20.906Z,2.15
2022-07-28T23:15:40.533Z,2.55
2022-07-28T23:18:47.670Z,2.55
2022-07-28T23:21:55.182Z,3.35
2022-07-28T23:25:01.554Z,2.83
2022-07-28T23:28:12.629Z,2.40
2022-07-28T23:31:18.241Z,2.53
2022-07-28T23:34:25.858Z,2.47
2022-07-28T23:37:32.015Z,2.65
2022-07-28T23:40:39.633Z,2.72
2022-07-28T23:43:49.181Z,3.08
2022-07-28T23:46:57.168Z,1.98
2022-07-28T23:50:02.768Z,2.85
2022-07-28T23:53:10.528Z,3.72
2022-07-28T23:56:17.967Z,2.53
2022-07-28T23:59:28.492Z,5.00
